Grand Forks Air Force Base, ND

03:09 CDT le 29 mai 2015 (GMT -0500)
Grand Forks International | | Change Station
CLOSE
Current Station
Aéroport
Location: Grand Forks,
Altitude: 843 ft
Stations météo à proximité

Alt. 843 ft 47.95 °N, 97.18 °W | Updated 16 minutes ago

Couvert
Couvert
52 ° F
Paraît 52 ° F
N
23
Vent Variable Vent de NNO
Gusts 32 mph

Aujourd'hui
Haut(e) -- | Bas -- ° F
--% Risque de précip.
Hier
Haut(e) -- | Bas -- ° F
Precip. -- pouce
5:35 AM 9:16 PM
Lune gibbeuse croissante, 82% visible
Pression 29.93 pouce
Visibilité 10.0 Miles terrestres
Nuages Couvert 1000 ft
Point de rosée 49 ° F
Humidité 89%
Précipitations 0.00 pouce
Profondeur de la couche neigeuse Non disponible.
UV 0 sur 12
Pollen 6.10 sur 12
Qualité de l'air Non disponible.
Flu Activity Sporadic
METAR KGFK 290753Z AUTO 34020G28KT 10SM OVC010 11/09 A2993 RMK AO2 PK WND 35029/0717 SLP135 T01110094 TSNO

More Conditions Fewer Conditions

Pression 29.93 pouce
Visibilité 10.0 Miles terrestres
Nuages Couvert 1000 ft
Point de rosée 49 ° F
Humidité 89%
Précipitations 0.00 pouce
Profondeur de la couche neigeuse Non disponible.
UV 0 sur 12
Pollen 6.10 sur 12
Qualité de l'air Non disponible.
Flu Activity Sporadic
METAR KGFK 290753Z AUTO 34020G28KT 10SM OVC010 11/09 A2993 RMK AO2 PK WND 35029/0717 SLP135 T01110094 TSNO

More Conditions Fewer Conditions

10-Day Weather Forecast

Almanac

Astronomie

May. 29, 2015 Lever Coucher
Temps réel
Crépuscule civil
Crépuscule nautique
Crépuscule astronomique
Lune
Durée de lumière visible
Longueur du jour
Tomorrow will be .
, % of the Moon is Illuminated

Extrêmes aujourd'hui

State Highs State Lows

Community

WunderPhotos

Upload Photos

1,825,221 Photos téléchargées !

WunderBlogs® & News

Nearby

Qualité de l'air

  Qualité de l'air Indice de la qualité de l'air Polluant
Not available.

Épaisseur de neige

Station Depth Altitude

Activité sismique

Ville Distance Mag. Time & Date
Minimum magnitude displayed is 2.5.

Températures des eaux côtières

Lieu Température

Stations

Stations météo à proximité

Emplacement de la station Température Refroidissement éolien Point de rosée Humidité Vent Precip. Alt. Mise à jour Type